AAL2988 KORD-KDFW
Flight info
| Callsign | AAL2988 |
|---|---|
| Flight time | N/A |
| Altitude | 32000 |
| Route | ACITO ADELL ARLYN STL RZC FSM RRNET BRDJE5 |
| Aircraft | A321/M-SDE3FGHIRWY/LB1 |
Departure
| Time | N/A |
|---|---|
| Airport | Chicago O'Hare International Airport (KORD) |
Arrival
| Time | 2026-05-08 00:52 |
|---|---|
| Airport | Dallas Fort Worth International Airport (KDFW) |
| Time | Latitude | Longitude | Altitude | Speed | Heading |
|---|---|---|---|---|---|
| 2026-05-08 00:24 | 34.41734 | -95.29378 | 32043 ft | 355 kts | 228° |
| 2026-05-08 00:24 | 34.37936 | -95.33196 | 32045 ft | 355 kts | 228° |
| 2026-05-08 00:25 | 34.34139 | -95.37018 | 32020 ft | 355 kts | 228° |
| 2026-05-08 00:25 | 34.30341 | -95.40844 | 32026 ft | 355 kts | 228° |
| 2026-05-08 00:26 | 34.26554 | -95.44634 | 32034 ft | 356 kts | 227° |
| 2026-05-08 00:26 | 34.22738 | -95.48458 | 32043 ft | 356 kts | 227° |
| 2026-05-08 00:27 | 34.18925 | -95.52278 | 32049 ft | 356 kts | 228° |
| 2026-05-08 00:27 | 34.15105 | -95.56091 | 32053 ft | 356 kts | 227° |
| 2026-05-08 00:28 | 34.11277 | -95.59899 | 32055 ft | 356 kts | 227° |
| 2026-05-08 00:28 | 34.07456 | -95.63705 | 31991 ft | 358 kts | 227° |
| 2026-05-08 00:29 | 34.05529 | -95.65627 | 31743 ft | 360 kts | 227° |
| 2026-05-08 00:29 | 34.03595 | -95.67558 | 31501 ft | 362 kts | 227° |
| 2026-05-08 00:29 | 34.01650 | -95.69492 | 31254 ft | 361 kts | 227° |
| 2026-05-08 00:29 | 33.99723 | -95.71392 | 30845 ft | 355 kts | 227° |
| 2026-05-08 00:30 | 33.97830 | -95.73259 | 30385 ft | 349 kts | 228° |
| 2026-05-08 00:30 | 33.95962 | -95.75106 | 29741 ft | 347 kts | 229° |
| 2026-05-08 00:30 | 33.94132 | -95.76923 | 29161 ft | 343 kts | 229° |
| 2026-05-08 00:30 | 33.92282 | -95.78771 | 28580 ft | 340 kts | 229° |
| 2026-05-08 00:31 | 33.90498 | -95.80560 | 28015 ft | 338 kts | 229° |
| 2026-05-08 00:31 | 33.88694 | -95.82374 | 27453 ft | 338 kts | 229° |
| 2026-05-08 00:31 | 33.86889 | -95.84184 | 26873 ft | 338 kts | 228° |
| 2026-05-08 00:31 | 33.85083 | -95.85992 | 26385 ft | 338 kts | 228° |
| 2026-05-08 00:32 | 33.83245 | -95.87842 | 26331 ft | 352 kts | 228° |
| 2026-05-08 00:32 | 33.81325 | -95.89776 | 25796 ft | 364 kts | 227° |
| 2026-05-08 00:32 | 33.79363 | -95.91722 | 25208 ft | 367 kts | 226° |
| 2026-05-08 00:32 | 33.77381 | -95.93668 | 24634 ft | 368 kts | 226° |
| 2026-05-08 00:33 | 33.75400 | -95.95612 | 24061 ft | 369 kts | 226° |
| 2026-05-08 00:33 | 33.73411 | -95.97562 | 23457 ft | 369 kts | 226° |
| 2026-05-08 00:33 | 33.71426 | -95.99507 | 22828 ft | 368 kts | 226° |
| 2026-05-08 00:33 | 33.69449 | -96.01447 | 22267 ft | 366 kts | 226° |
| 2026-05-08 00:34 | 33.67488 | -96.03372 | 21683 ft | 362 kts | 225° |
| 2026-05-08 00:34 | 33.65544 | -96.05282 | 21125 ft | 359 kts | 225° |
| 2026-05-08 00:34 | 33.63615 | -96.07173 | 20570 ft | 356 kts | 225° |
| 2026-05-08 00:34 | 33.61731 | -96.09022 | 20014 ft | 353 kts | 225° |
| 2026-05-08 00:35 | 33.59834 | -96.10882 | 19468 ft | 351 kts | 224° |
| 2026-05-08 00:35 | 33.57952 | -96.12732 | 18914 ft | 348 kts | 224° |
| 2026-05-08 00:35 | 33.56090 | -96.14565 | 18375 ft | 345 kts | 224° |
| 2026-05-08 00:35 | 33.54241 | -96.16388 | 17765 ft | 343 kts | 224° |
| 2026-05-08 00:36 | 33.52403 | -96.18190 | 17193 ft | 340 kts | 224° |
| 2026-05-08 00:36 | 33.50573 | -96.19979 | 16680 ft | 339 kts | 224° |
| 2026-05-08 00:36 | 33.48753 | -96.21760 | 16145 ft | 337 kts | 224° |
| 2026-05-08 00:36 | 33.46962 | -96.23507 | 15850 ft | 326 kts | 224° |
| 2026-05-08 00:37 | 33.45234 | -96.25190 | 15591 ft | 315 kts | 225° |
| 2026-05-08 00:37 | 33.43720 | -96.27026 | 15355 ft | 307 kts | 233° |
| 2026-05-08 00:37 | 33.42326 | -96.28972 | 14870 ft | 307 kts | 233° |
| 2026-05-08 00:38 | 33.39519 | -96.32843 | 13728 ft | 309 kts | 233° |
| 2026-05-08 00:38 | 33.38106 | -96.34778 | 13177 ft | 307 kts | 233° |
| 2026-05-08 00:38 | 33.37179 | -96.36046 | 12777 ft | 307 kts | 233° |
| 2026-05-08 00:38 | 33.35785 | -96.37955 | 12292 ft | 303 kts | 232° |
| 2026-05-08 00:39 | 33.34003 | -96.40397 | 12086 ft | 285 kts | 233° |
| 2026-05-08 00:39 | 33.33171 | -96.41620 | 11917 ft | 277 kts | 239° |
| 2026-05-08 00:39 | 33.32280 | -96.43613 | 11647 ft | 268 kts | 251° |
| 2026-05-08 00:39 | 33.31500 | -96.46399 | 11369 ft | 267 kts | 252° |
| 2026-05-08 00:40 | 33.31101 | -96.47821 | 11211 ft | 267 kts | 252° |
| 2026-05-08 00:40 | 33.30512 | -96.49912 | 10977 ft | 262 kts | 252° |
| 2026-05-08 00:40 | 33.29935 | -96.51957 | 10672 ft | 257 kts | 252° |
| 2026-05-08 00:40 | 33.29376 | -96.53947 | 10375 ft | 254 kts | 252° |
| 2026-05-08 00:41 | 33.28841 | -96.55925 | 10088 ft | 253 kts | 257° |
| 2026-05-08 00:41 | 33.28626 | -96.57977 | 9773 ft | 253 kts | 266° |
| 2026-05-08 00:41 | 33.28538 | -96.60071 | 9471 ft | 252 kts | 266° |
| 2026-05-08 00:41 | 33.28447 | -96.62163 | 9168 ft | 252 kts | 266° |
| 2026-05-08 00:42 | 33.28351 | -96.64254 | 8869 ft | 251 kts | 266° |
| 2026-05-08 00:42 | 33.28257 | -96.66336 | 8573 ft | 251 kts | 266° |
| 2026-05-08 00:42 | 33.28162 | -96.68425 | 8269 ft | 251 kts | 266° |
| 2026-05-08 00:42 | 33.28065 | -96.70506 | 7970 ft | 251 kts | 266° |
| 2026-05-08 00:43 | 33.27965 | -96.72593 | 7669 ft | 251 kts | 266° |
| 2026-05-08 00:43 | 33.27867 | -96.74672 | 7405 ft | 248 kts | 266° |
| 2026-05-08 00:43 | 33.27773 | -96.76691 | 7103 ft | 239 kts | 266° |
| 2026-05-08 00:43 | 33.27677 | -96.78678 | 6806 ft | 240 kts | 266° |
| 2026-05-08 00:44 | 33.27581 | -96.80672 | 6517 ft | 240 kts | 267° |
| 2026-05-08 00:44 | 33.27488 | -96.82670 | 6221 ft | 243 kts | 267° |
| 2026-05-08 00:44 | 33.27395 | -96.84666 | 6023 ft | 240 kts | 267° |
| 2026-05-08 00:44 | 33.27318 | -96.86677 | 6014 ft | 244 kts | 267° |
| 2026-05-08 00:45 | 33.27086 | -96.88752 | 6013 ft | 261 kts | 250° |
| 2026-05-08 00:45 | 33.26102 | -96.90579 | 5929 ft | 265 kts | 227° |
| 2026-05-08 00:45 | 33.24759 | -96.92100 | 5515 ft | 265 kts | 223° |
| 2026-05-08 00:45 | 33.23415 | -96.93543 | 5386 ft | 254 kts | 222° |
| 2026-05-08 00:46 | 33.22129 | -96.94923 | 5262 ft | 243 kts | 222° |
| 2026-05-08 00:46 | 33.20901 | -96.96246 | 5137 ft | 232 kts | 222° |
| 2026-05-08 00:46 | 33.19646 | -96.97412 | 4903 ft | 227 kts | 214° |
| 2026-05-08 00:46 | 33.18331 | -96.98452 | 4556 ft | 227 kts | 212° |
| 2026-05-08 00:47 | 33.17004 | -96.99468 | 4223 ft | 225 kts | 207° |
| 2026-05-08 00:47 | 33.15610 | -97.00274 | 4032 ft | 221 kts | 203° |
| 2026-05-08 00:47 | 33.14195 | -97.01021 | 4014 ft | 223 kts | 202° |
| 2026-05-08 00:47 | 33.12770 | -97.01768 | 4016 ft | 224 kts | 202° |
| 2026-05-08 00:48 | 33.11340 | -97.02441 | 4021 ft | 223 kts | 191° |
| 2026-05-08 00:48 | 33.09797 | -97.02545 | 3988 ft | 223 kts | 178° |
| 2026-05-08 00:48 | 33.08252 | -97.02521 | 3780 ft | 221 kts | 179° |
| 2026-05-08 00:48 | 33.06716 | -97.02517 | 3512 ft | 220 kts | 179° |
| 2026-05-08 00:49 | 33.05194 | -97.02524 | 3227 ft | 218 kts | 179° |
| 2026-05-08 00:49 | 33.03685 | -97.02532 | 2932 ft | 217 kts | 179° |
| 2026-05-08 00:49 | 33.02177 | -97.02540 | 2655 ft | 216 kts | 179° |
| 2026-05-08 00:49 | 33.00676 | -97.02548 | 2377 ft | 215 kts | 179° |
| 2026-05-08 00:50 | 32.99180 | -97.02556 | 2086 ft | 214 kts | 179° |
| 2026-05-08 00:50 | 32.97693 | -97.02564 | 1802 ft | 214 kts | 179° |
| 2026-05-08 00:50 | 32.96202 | -97.02572 | 1519 ft | 214 kts | 180° |
| 2026-05-08 00:50 | 32.94734 | -97.02581 | 1262 ft | 199 kts | 180° |
| 2026-05-08 00:51 | 32.93454 | -97.02588 | 990 ft | 170 kts | 180° |
| 2026-05-08 00:51 | 32.92322 | -97.02596 | 778 ft | 156 kts | 179° |
| 2026-05-08 00:51 | 32.91298 | -97.02604 | 589 ft | 137 kts | 179° |
| 2026-05-08 00:51 | 32.90454 | -97.02604 | 578 ft | 93 kts | 180° |
| 2026-05-08 00:52 | 32.90073 | -97.02610 | 574 ft | 35 kts | 188° |
| 2026-05-08 00:52 | 32.89872 | -97.02717 | 568 ft | 22 kts | 212° |
| 2026-05-08 00:52 | 32.89747 | -97.02798 | 570 ft | 20 kts | 195° |
| 2026-05-08 00:52 | 32.89611 | -97.02798 | 572 ft | 20 kts | 180° |
| 2026-05-08 00:53 | 32.89470 | -97.02801 | 572 ft | 21 kts | 182° |
| 2026-05-08 00:53 | 32.89394 | -97.02859 | 574 ft | 12 kts | 256° |
| 2026-05-08 00:53 | 32.89393 | -97.02968 | 576 ft | 16 kts | 271° |
| 2026-05-08 00:53 | 32.89394 | -97.03108 | 576 ft | 17 kts | 270° |
| 2026-05-08 00:54 | 32.89394 | -97.03255 | 581 ft | 13 kts | 271° |
| 2026-05-08 00:54 | 32.89440 | -97.03316 | 585 ft | 11 kts | 350° |
| 2026-05-08 00:54 | 32.89520 | -97.03317 | 586 ft | 13 kts | 1° |
| 2026-05-08 00:54 | 32.89616 | -97.03316 | 586 ft | 15 kts | 360° |
| 2026-05-08 00:55 | 32.89728 | -97.03316 | 586 ft | 17 kts | 355° |
| 2026-05-08 00:55 | 32.89802 | -97.03398 | 587 ft | 13 kts | 315° |
| 2026-05-08 00:55 | 32.89877 | -97.03438 | 587 ft | 12 kts | 345° |
| 2026-05-08 00:55 | 32.89947 | -97.03484 | 587 ft | 6 kts | 313° |
| 2026-05-08 00:56 | 32.89945 | -97.03527 | 587 ft | 1 kts | 251° |
| 2026-05-08 00:56 | 32.89941 | -97.03537 | 587 ft | 3 kts | 244° |
| 2026-05-08 00:56 | 32.89933 | -97.03555 | 587 ft | 0 kts | 243° |